Time;durP1;ratioP1;P1;durP2;ratioP2;P2;SDS_P1;SDS_P2;PMS_P1;PMS_P2;Temp;Humidity;BMP_temperature;BMP_pressure;BME280_temperature;BME280_humidity;BME280_pressure;Samples;Min_cycle;Max_cycle;Signal;HPM_P1;HPM_P2
2023/03/20 00:01:22;;;;;;;;;;;11.00;99.90;;;;;;5035145;28;20098;-79
2023/03/20 00:03:49;;;;;;;7.03;3.13;;;7.80;99.90;;;;;;5034718;28;19917;-79
2023/03/20 00:06:19;;;;;;;5.78;3.05;;;10.60;99.90;;;;;;5051185;28;20069;-79
2023/03/20 00:08:46;;;;;;;6.93;3.47;;;8.10;99.90;;;;;;5051322;28;20424;-80
2023/03/20 00:11:32;;;;;;;5.95;2.88;;;8.50;99.90;;;;;;5051255;28;20073;-79
2023/03/20 00:14:05;;;;;;;3.78;2.30;;;10.20;99.90;;;;;;5051293;28;20048;-79
2023/03/20 00:16:36;;;;;;;6.95;3.08;;;10.60;99.90;;;;;;5051291;28;20040;-79
2023/03/20 00:19:03;;;;;;;5.60;3.03;;;8.00;99.90;;;;;;5034645;28;20041;-79
2023/03/20 00:21:30;;;;;;;6.57;2.85;;;10.80;99.90;;;;;;5051034;28;20041;-79
2023/03/20 00:23:56;;;;;;;8.00;3.92;;;8.00;99.90;;;;;;5051166;28;20045;-79
2023/03/20 00:26:27;;;;;;;5.38;3.05;;;10.50;99.90;;;;;;5034509;28;20511;-79
2023/03/20 00:28:52;;;;;;;5.55;2.80;;;9.40;99.90;;;;;;5034590;28;20128;-79
2023/03/20 00:31:29;;;;;;;6.05;2.95;;;10.40;99.90;;;;;;5051039;28;20132;-79
2023/03/20 00:34:01;;;;;;;5.47;3.20;;;8.00;99.90;;;;;;5034434;28;20040;-79
2023/03/20 00:36:27;;;;;;;7.25;2.67;;;9.90;99.90;;;;;;5034438;28;20461;-79
2023/03/20 00:38:53;;;;;;;10.02;2.80;;;7.80;99.90;;;;;;5051262;28;20120;-79
2023/03/20 00:41:41;;;;;;;5.72;3.00;;;10.70;99.90;;;;;;5051012;28;20041;-79
2023/03/20 00:44:27;;;;;;;6.25;2.60;;;7.90;99.90;;;;;;5051000;28;20045;-79
2023/03/20 00:47:10;;;;;;;5.85;2.70;;;9.90;99.90;;;;;;5034300;28;20041;-79
2023/03/20 00:49:37;;;;;;;4.30;2.38;;;10.30;99.90;;;;;;5050766;28;20041;-79
2023/03/20 00:52:04;;;;;;;5.63;2.55;;;7.60;99.90;;;;;;5050904;28;20382;-79
2023/03/20 00:54:30;;;;;;;5.47;2.53;;;8.00;99.90;;;;;;5034270;28;20044;-79
2023/03/20 00:56:58;;;;;;;7.80;2.80;;;7.90;99.90;;;;;;5051129;28;20029;-79
2023/03/20 00:59:29;;;;;;;5.07;2.30;;;10.40;99.90;;;;;;5033788;28;20053;-79
2023/03/20 01:01:55;;;;;;;3.90;2.38;;;8.40;99.90;;;;;;5034223;28;20040;-79
2023/03/20 01:04:20;;;;;;;4.53;2.30;;;10.50;99.90;;;;;;5052335;28;20041;-79
2023/03/20 01:06:47;;;;;;;4.68;2.03;;;8.00;99.90;;;;;;5037789;28;20049;-79
2023/03/20 01:09:12;;;;;;;5.95;2.38;;;7.80;99.90;;;;;;5037998;28;20566;-79
2023/03/20 01:11:39;;;;;;;4.90;2.85;;;8.40;99.90;;;;;;5037651;28;20041;-79
2023/03/20 01:14:12;;;;;;;5.68;2.60;;;8.20;99.90;;;;;;5038045;28;20140;-79
2023/03/20 01:16:39;;;;;;;4.93;2.60;;;7.70;99.90;;;;;;5037640;28;20033;-79
2023/03/20 01:19:05;;;;;;;5.82;2.72;;;7.80;99.90;;;;;;5037564;28;20036;-79
2023/03/20 01:21:32;;;;;;;6.00;2.83;;;7.50;99.90;;;;;;5054122;28;20041;-79
2023/03/20 01:23:57;;;;;;;5.72;2.63;;;8.00;99.90;;;;;;5037512;28;20048;-79
2023/03/20 01:26:35;;;;;;;4.78;2.72;;;7.80;99.90;;;;;;5037515;28;20036;-79
2023/03/20 01:29:00;;;;;;;5.03;2.38;;;7.90;99.90;;;;;;5054398;28;20052;-79
2023/03/20 01:31:26;;;;;;;5.03;2.83;;;7.60;99.90;;;;;;5037332;28;20404;-79
2023/03/20 01:33:51;;;;;;;5.72;2.60;;;7.80;99.90;;;;;;5037320;28;20052;-79
2023/03/20 01:36:21;;;;;;;7.47;3.10;;;9.80;99.90;;;;;;5053923;28;20041;-79
2023/03/20 01:38:55;;;;;;;4.63;2.25;;;9.90;99.90;;;;;;5021162;28;20388;-79
2023/03/20 01:41:23;;;;;;;6.70;3.10;;;7.80;99.90;;;;;;5037238;28;20136;-79
2023/03/20 01:43:49;;;;;;;5.65;2.47;;;8.20;99.90;;;;;;5037131;28;20044;-78
2023/03/20 01:46:27;;;;;;;5.35;2.20;;;7.80;99.90;;;;;;5037075;28;20524;-79
2023/03/20 01:48:53;;;;;;;10.05;2.65;;;7.90;99.90;;;;;;5037097;28;20045;-79
2023/03/20 01:51:26;;;;;;;3.63;2.28;;;9.50;99.90;;;;;;5053505;28;20045;-79
2023/03/20 01:53:59;;;;;;;3.70;2.25;;;10.60;99.90;;;;;;5036996;28;20476;-79
2023/03/20 01:56:27;;;;;;;5.75;2.40;;;10.40;99.90;;;;;;5053617;28;20389;-79
2023/03/20 01:59:01;;;;;;;5.25;2.55;;;8.20;99.90;;;;;;5053567;28;20037;-79
2023/03/20 02:01:29;;;;;;;8.05;2.38;;;10.60;99.90;;;;;;5053388;28;20045;-79
2023/03/20 02:03:56;;;;;;;6.07;2.40;;;8.00;99.90;;;;;;5036794;28;20128;-79
2023/03/20 02:06:23;;;;;;;6.90;2.85;;;10.70;99.90;;;;;;5053221;28;20071;-79
2023/03/20 02:08:51;;;;;;;4.72;2.25;;;7.70;99.90;;;;;;5053272;28;20045;-79
2023/03/20 02:11:23;;;;;;;5.93;2.90;;;9.30;99.90;;;;;;5053148;28;20052;-79
2023/03/20 02:13:53;;;;;;;9.23;2.63;;;7.90;99.90;;;;;;5053153;28;20036;-80
2023/03/20 02:16:19;;;;;;;5.80;2.50;;;10.30;99.90;;;;;;5052139;28;20405;-80
2023/03/20 02:18:48;;;;;;;5.85;2.55;;;9.50;99.90;;;;;;5053427;28;20048;-79
2023/03/20 02:21:41;;;;;;;8.13;2.22;;;7.70;99.90;;;;;;5053292;28;20126;-79
2023/03/20 02:24:50;;;;;;;6.90;2.30;;;7.90;99.90;;;;;;5036673;28;20053;-79
2023/03/20 02:27:18;;;;;;;4.10;2.35;;;7.90;99.90;;;;;;5052926;28;20405;-79
2023/03/20 02:30:10;;;;;;;6.28;3.33;;;7.80;99.90;;;;;;5036424;28;20081;-79
2023/03/20 02:32:57;;;;;;;4.25;2.78;;;7.90;99.90;;;;;;5036381;28;20033;-79
2023/03/20 02:35:56;;;;;;;4.47;2.80;;;7.90;99.90;;;;;;5052885;28;20551;-79
2023/03/20 02:38:28;;;;;;;4.55;2.13;;;7.90;99.90;;;;;;5052845;28;20082;-79
2023/03/20 02:41:03;;;;;;;4.75;2.45;;;7.90;99.90;;;;;;5052849;28;20041;-79
2023/03/20 02:43:47;;;;;;;5.60;2.63;;;7.90;99.90;;;;;;5052618;28;20041;-79
2023/03/20 02:46:20;;;;;;;10.25;3.13;;;7.90;99.90;;;;;;5036523;28;20095;-79
2023/03/20 02:49:16;;;;;;;5.63;2.63;;;7.90;99.90;;;;;;5036069;28;20045;-79
2023/03/20 02:51:51;;;;;;;7.95;3.38;;;7.90;99.90;;;;;;5031984;28;20103;-79
2023/03/20 02:54:39;;;;;;;9.50;3.58;;;7.80;99.90;;;;;;5035983;28;20041;-79
2023/03/20 02:57:14;;;;;;;6.47;3.72;;;7.80;99.90;;;;;;5035991;28;20055;-79
2023/03/20 02:59:46;;;;;;;5.68;3.40;;;7.80;99.90;;;;;;5035950;28;20041;-78
2023/03/20 03:02:19;;;;;;;8.50;4.07;;;7.80;99.90;;;;;;5052784;22;20041;-63
2023/03/20 03:04:53;;;;;;;11.70;4.50;;;7.90;99.90;;;;;;5072332;28;20577;-63
2023/03/20 03:07:23;;;;;;;9.40;4.03;;;7.90;99.90;;;;;;5073705;28;20029;-62
2023/03/20 03:09:58;;;;;;;10.88;5.13;;;7.80;99.90;;;;;;5073584;28;20114;-63
2023/03/20 03:12:29;;;;;;;9.27;4.05;;;7.80;99.90;;;;;;5073651;28;20052;-63
2023/03/20 03:15:00;;;;;;;7.88;4.07;;;7.80;99.90;;;;;;5073587;28;20041;-63
2023/03/20 03:17:30;;;;;;;10.27;4.78;;;7.80;99.90;;;;;;5073489;28;20041;-63
2023/03/20 03:20:00;;;;;;;8.75;4.65;;;7.90;99.90;;;;;;5073188;28;20044;-64
2023/03/20 03:22:25;;;;;;;11.13;4.37;;;7.90;99.90;;;;;;5073484;28;20033;-63
2023/03/20 03:24:53;;;;;;;7.43;3.83;;;7.90;99.90;;;;;;5073111;28;20275;-62
2023/03/20 03:27:26;;;;;;;8.32;4.47;;;7.80;99.90;;;;;;5073129;28;20040;-63
2023/03/20 03:29:57;;;;;;;6.60;3.97;;;7.90;99.90;;;;;;5073253;28;20453;-62
2023/03/20 03:32:33;;;;;;;8.40;4.70;;;7.80;99.90;;;;;;5055103;28;20067;-63
2023/03/20 03:35:01;;;;;;;15.88;4.43;;;7.80;99.90;;;;;;5073251;28;20547;-63
2023/03/20 03:37:52;;;;;;;9.98;4.75;;;7.80;99.90;;;;;;5073232;28;20484;-63
2023/03/20 03:40:34;;;;;;;10.38;4.55;;;7.90;99.90;;;;;;5055086;28;20040;-63
2023/03/20 03:43:15;;;;;;;13.15;4.32;;;7.80;99.90;;;;;;5055203;28;20059;-62
2023/03/20 03:46:16;;;;;;;12.00;4.70;;;7.80;99.90;;;;;;5054847;28;20086;-63
2023/03/20 03:48:48;;;;;;;8.55;4.22;;;7.80;99.90;;;;;;5055143;28;20053;-63
2023/03/20 03:51:19;;;;;;;11.52;4.50;;;9.70;99.90;;;;;;5073014;28;20044;-63
2023/03/20 03:53:53;;;;;;;11.95;4.60;;;7.80;99.90;;;;;;5072998;28;20040;-63
2023/03/20 03:56:22;;;;;;;11.57;4.18;;;7.90;99.90;;;;;;5073011;28;20441;-63
2023/03/20 03:58:52;;;;;;;10.50;4.70;;;7.90;99.90;;;;;;5073005;28;20174;-62
2023/03/20 04:01:21;;;;;;;8.73;4.05;;;7.90;99.90;;;;;;5072985;28;20068;-62
2023/03/20 04:03:51;;;;;;;7.85;4.50;;;8.30;99.90;;;;;;5072642;28;20095;-63
2023/03/20 04:06:18;;;;;;;7.13;3.63;;;7.90;99.90;;;;;;5072906;28;20411;-63
2023/03/20 04:08:43;;;;;;;12.70;3.95;;;7.90;99.90;;;;;;5072555;28;20048;-63
2023/03/20 04:11:17;;;;;;;7.97;3.92;;;7.90;99.90;;;;;;5072822;28;20040;-63
2023/03/20 04:13:46;;;;;;;7.88;3.42;;;7.90;99.90;;;;;;5072853;28;20046;-63
2023/03/20 04:16:13;;;;;;;9.20;4.00;;;7.90;99.90;;;;;;5054580;28;20052;-63
2023/03/20 04:18:39;;;;;;;6.60;3.83;;;7.90;99.90;;;;;;5054824;28;20040;-63
2023/03/20 04:21:05;;;;;;;8.20;4.20;;;7.90;99.90;;;;;;5072702;28;20086;-63
2023/03/20 04:23:31;;;;;;;6.65;3.45;;;7.90;99.90;;;;;;5054803;28;20047;-63
2023/03/20 04:25:57;;;;;;;10.65;3.65;;;7.90;99.90;;;;;;5072349;28;20128;-63
2023/03/20 04:28:23;;;;;;;9.60;3.85;;;7.90;99.90;;;;;;5072655;28;20080;-63
2023/03/20 04:30:53;;;;;;;7.20;3.42;;;7.90;99.90;;;;;;5072539;28;20439;-63
2023/03/20 04:33:19;;;;;;;8.85;3.88;;;7.90;99.90;;;;;;5072670;28;20040;-63
2023/03/20 04:35:45;;;;;;;6.15;3.10;;;8.50;99.90;;;;;;5072625;28;20498;-63
2023/03/20 04:38:11;;;;;;;7.57;3.72;;;7.90;99.90;;;;;;5072297;28;20098;-63
2023/03/20 04:40:37;;;;;;;9.02;3.72;;;7.90;99.90;;;;;;5057744;28;20044;-63
2023/03/20 04:43:02;;;;;;;10.38;3.88;;;7.80;99.90;;;;;;5076459;28;20040;-63
2023/03/20 04:45:28;;;;;;;9.98;3.70;;;7.90;99.90;;;;;;5058424;28;20451;-63
2023/03/20 04:47:54;;;;;;;8.80;3.45;;;7.80;99.90;;;;;;5076419;28;20093;-63
2023/03/20 04:50:19;;;;;;;6.00;3.50;;;7.80;99.90;;;;;;5041354;28;20075;-63
2023/03/20 04:52:45;;;;;;;8.65;3.65;;;7.80;99.90;;;;;;5076171;28;20041;-63
2023/03/20 04:55:10;;;;;;;5.63;3.58;;;7.80;99.90;;;;;;5076245;28;20387;-62
2023/03/20 04:57:36;;;;;;;7.75;3.45;;;7.80;99.90;;;;;;5075819;28;20115;-63
2023/03/20 05:00:03;;;;;;;5.97;3.30;;;7.80;99.90;;;;;;5076117;28;20046;-63
2023/03/20 05:02:29;;;;;;;6.28;3.60;;;7.80;99.90;;;;;;5041268;28;20052;-63
2023/03/20 05:04:54;;;;;;;5.50;3.00;;;7.80;99.90;;;;;;5075998;28;20059;-64
2023/03/20 05:07:20;;;;;;;5.82;3.00;;;8.60;99.40;;;;;;5076002;28;20494;-63
2023/03/20 05:09:46;;;;;;;3.95;2.97;;;7.80;95.60;;;;;;5076162;28;20037;-62
2023/03/20 05:12:12;;;;;;;6.63;3.45;;;7.80;93.70;;;;;;5075909;28;20036;-63
2023/03/20 05:14:37;;;;;;;9.15;3.45;;;7.80;89.50;;;;;;5075554;28;20480;-63
2023/03/20 05:17:03;;;;;;;7.10;3.45;;;7.80;90.00;;;;;;5075671;28;20051;-63
2023/03/20 05:19:29;;;;;;;5.70;2.70;;;7.80;88.90;;;;;;5075437;28;20044;-63
2023/03/20 05:21:55;;;;;;;6.55;2.95;;;7.80;89.80;;;;;;5075781;28;20043;-62
2023/03/20 05:24:21;;;;;;;5.88;2.83;;;7.80;82.10;;;;;;5075702;28;20032;-64
2023/03/20 05:26:46;;;;;;;7.32;2.70;;;7.80;81.60;;;;;;5075354;28;20033;-63
2023/03/20 05:29:12;;;;;;;4.82;2.60;;;7.80;76.00;;;;;;5075631;28;20032;-63
2023/03/20 05:31:38;;;;;;;5.57;2.90;;;7.80;79.00;;;;;;5075389;28;20044;-63
2023/03/20 05:34:04;;;;;;;7.88;2.92;;;7.80;78.00;;;;;;5075571;28;20040;-63
2023/03/20 05:36:30;;;;;;;9.07;2.88;;;7.80;78.50;;;;;;5075433;28;20040;-62
2023/03/20 05:38:56;;;;;;;4.30;2.65;;;7.80;74.40;;;;;;5075463;28;20210;-63
2023/03/20 05:41:22;;;;;;;7.38;3.10;;;7.80;74.10;;;;;;5075301;28;20094;-62
2023/03/20 05:43:47;;;;;;;6.95;2.83;;;7.80;70.70;;;;;;5075694;28;20483;-63
2023/03/20 05:46:14;;;;;;;6.82;2.65;;;7.80;70.50;;;;;;5074989;28;20044;-63
2023/03/20 05:48:39;;;;;;;7.05;3.40;;;7.80;78.40;;;;;;5074950;28;20087;-63
2023/03/20 05:51:05;;;;;;;5.45;3.35;;;7.80;71.20;;;;;;5073599;28;20427;-63
2023/03/20 05:53:31;;;;;;;8.50;3.30;;;7.80;59.80;;;;;;5075098;28;20036;-62
2023/03/20 05:55:57;;;;;;;7.55;3.45;;;7.80;62.70;;;;;;5075146;28;20028;-64
2023/03/20 05:58:22;;;;;;;10.77;4.00;;;7.80;62.60;;;;;;5075107;28;20111;-62
2023/03/20 06:00:48;;;;;;;5.85;3.50;;;8.30;67.20;;;;;;5074911;28;20041;-63
2023/03/20 06:03:14;;;;;;;5.80;3.08;;;7.80;65.20;;;;;;5073504;28;20048;-63
2023/03/20 06:05:40;;;;;;;8.43;3.85;;;7.80;61.70;;;;;;5074618;28;20056;-63
2023/03/20 06:08:06;;;;;;;11.38;3.63;;;7.80;61.80;;;;;;5074936;28;20043;-63
2023/03/20 06:10:31;;;;;;;11.32;4.10;;;7.80;61.50;;;;;;5074729;28;20037;-62
2023/03/20 06:12:59;;;;;;;8.93;3.50;;;7.80;57.80;;;;;;5074792;28;20407;-62
2023/03/20 06:15:28;;;;;;;7.22;4.22;;;7.80;53.30;;;;;;5074737;28;20041;-64
2023/03/20 06:17:55;;;;;;;8.70;4.05;;;7.80;48.80;;;;;;5074649;28;20044;-63
2023/03/20 06:20:20;;;;;;;8.30;3.35;;;7.80;48.50;;;;;;5073433;28;20043;-62
2023/03/20 06:22:46;;;;;;;9.10;5.15;;;7.80;46.70;;;;;;5074550;28;20032;-62
2023/03/20 06:25:12;;;;;;;9.95;3.60;;;7.80;46.40;;;;;;5056357;28;20117;-62
2023/03/20 06:27:40;;;;;;;7.30;3.95;;;7.80;35.40;;;;;;5074407;28;20048;-63
2023/03/20 06:30:07;;;;;;;11.18;4.72;;;7.80;26.80;;;;;;5074407;28;20437;-63
2023/03/20 06:32:32;;;;;;;5.65;3.13;;;7.90;25.70;;;;;;5074279;28;20459;-62
2023/03/20 06:34:58;;;;;;;10.52;3.80;;;7.90;21.60;;;;;;5074080;28;20080;-62
2023/03/20 06:37:24;;;;;;;8.05;4.35;;;7.90;19.50;;;;;;5074323;28;20115;-62
2023/03/20 06:39:50;;;;;;;9.00;3.65;;;7.90;16.20;;;;;;5074269;28;20387;-63
2023/03/20 06:42:16;;;;;;;9.77;4.25;;;8.00;12.60;;;;;;5074268;28;20120;-62
2023/03/20 06:44:42;;;;;;;8.45;3.70;;;8.00;4.70;;;;;;5074145;28;20036;-63
2023/03/20 06:47:07;;;;;;;8.32;3.67;;;8.00;1.50;;;;;;5074190;28;20037;-63
2023/03/20 06:49:33;;;;;;;8.82;3.92;;;8.00;1.00;;;;;;5073986;28;20036;-66
2023/03/20 06:51:59;;;;;;;8.15;4.28;;;8.00;1.00;;;;;;5074066;28;20045;-63
2023/03/20 06:54:25;;;;;;;5.50;3.55;;;8.10;1.00;;;;;;5074065;28;20032;-62
2023/03/20 06:56:51;;;;;;;13.68;4.85;;;8.10;1.00;;;;;;5073946;28;20381;-63
2023/03/20 06:59:17;;;;;;;8.82;3.88;;;8.10;1.00;;;;;;5073596;28;20492;-63
2023/03/20 07:01:42;;;;;;;12.45;4.00;;;8.10;1.00;;;;;;5073254;28;20040;-63
2023/03/20 07:04:08;;;;;;;7.30;3.45;;;8.20;1.00;;;;;;5073490;28;20442;-63
2023/03/20 07:06:34;;;;;;;6.53;3.58;;;8.20;1.00;;;;;;5073825;28;20040;-63
2023/03/20 07:09:00;;;;;;;9.05;3.70;;;9.10;1.00;;;;;;5073671;28;20062;-63
2023/03/20 07:11:26;;;;;;;6.18;4.03;;;8.20;1.00;;;;;;5073586;28;20044;-63
2023/03/20 07:13:52;;;;;;;9.27;4.65;;;8.20;1.00;;;;;;5073294;28;20044;-62
2023/03/20 07:16:17;;;;;;;5.90;3.97;;;8.30;1.00;;;;;;5073566;28;20036;-62
2023/03/20 07:18:43;;;;;;;12.10;4.05;;;8.30;1.00;;;;;;5055626;28;20040;-63
2023/03/20 07:21:15;;;;;;;9.68;4.45;;;8.30;1.00;;;;;;5073502;28;20098;-62
2023/03/20 07:23:41;;;;;;;7.90;3.38;;;8.40;1.00;;;;;;5073398;28;20051;-63
2023/03/20 07:26:06;;;;;;;5.95;2.97;;;8.40;1.00;;;;;;5073427;28;20032;-63
2023/03/20 07:28:32;;;;;;;6.72;3.85;;;8.50;99.90;;;;;;5073315;28;20157;-63
2023/03/20 07:30:58;;;;;;;9.10;3.42;;;8.50;1.00;;;;;;5073185;28;20467;-63
2023/03/20 07:33:23;;;;;;;10.00;3.78;;;8.50;1.00;;;;;;5073194;28;20167;-63
2023/03/20 07:35:53;;;;;;;11.13;4.28;;;8.60;99.90;;;;;;5073197;28;20101;-62
2023/03/20 07:38:20;;;;;;;6.75;2.90;;;8.60;99.90;;;;;;5073228;28;20044;-64
2023/03/20 07:40:47;;;;;;;7.13;3.60;;;8.60;99.90;;;;;;5072890;28;20044;-63
2023/03/20 07:43:13;;;;;;;5.20;2.92;;;8.60;99.90;;;;;;5073223;28;20044;-63
2023/03/20 07:45:39;;;;;;;8.27;3.30;;;8.70;99.90;;;;;;5055685;28;20099;-63
2023/03/20 07:48:05;;;;;;;10.50;4.65;;;8.70;99.90;;;;;;5073094;28;20483;-62
2023/03/20 07:50:31;;;;;;;5.90;3.17;;;8.70;99.90;;;;;;5072761;28;20033;-62
2023/03/20 07:52:56;;;;;;;7.10;3.63;;;8.80;99.90;;;;;;5073151;28;20044;-63
2023/03/20 07:55:22;;;;;;;4.78;3.38;;;8.90;99.90;;;;;;5073120;28;20391;-62
2023/03/20 07:57:48;;;;;;;6.15;3.50;;;8.90;99.90;;;;;;5073041;28;20052;-63
2023/03/20 08:00:15;;;;;;;7.57;3.08;;;9.00;99.90;;;;;;5072953;28;20036;-63
2023/03/20 08:02:41;;;;;;;8.98;4.25;;;9.00;99.90;;;;;;5072998;28;20055;-63
2023/03/20 08:05:08;;;;;;;5.47;3.40;;;9.00;99.90;;;;;;5054838;28;20124;-62
2023/03/20 08:07:34;;;;;;;8.68;3.58;;;9.00;99.90;;;;;;5072930;28;20044;-63
2023/03/20 08:09:59;;;;;;;8.65;3.28;;;9.10;99.90;;;;;;5072793;28;20368;-63
2023/03/20 08:12:25;;;;;;;7.63;4.18;;;9.10;99.90;;;;;;5072548;28;20041;-62
2023/03/20 08:14:51;;;;;;;9.02;3.92;;;9.00;99.90;;;;;;5075141;28;20037;-63
2023/03/20 08:17:17;;;;;;;10.35;4.40;;;9.00;99.90;;;;;;5076762;28;20040;-62
2023/03/20 08:19:42;;;;;;;11.25;4.13;;;9.00;99.90;;;;;;5076882;28;20040;-63
2023/03/20 08:22:08;;;;;;;12.95;4.22;;;9.10;99.90;;;;;;5076869;28;20033;-62
2023/03/20 08:24:34;;;;;;;7.75;4.22;;;9.10;99.90;;;;;;5058498;28;20051;-63
2023/03/20 08:27:00;;;;;;;6.82;3.72;;;9.10;99.90;;;;;;5076512;28;20407;-62
2023/03/20 08:29:25;;;;;;;10.52;4.55;;;9.20;99.90;;;;;;5076745;28;20035;-62
2023/03/20 08:31:51;;;;;;;6.38;4.03;;;9.30;99.90;;;;;;5076657;28;20040;-62
2023/03/20 08:34:16;;;;;;;7.18;3.47;;;9.40;99.90;;;;;;5076695;28;20032;-62
2023/03/20 08:36:42;;;;;;;9.93;3.95;;;9.40;99.90;;;;;;5076615;28;20038;-63
2023/03/20 08:39:08;;;;;;;10.18;3.60;;;9.50;99.90;;;;;;5076604;28;20123;-62
2023/03/20 08:41:37;;;;;;;9.25;3.83;;;9.60;1.00;;;;;;5058403;28;20043;-62
2023/03/20 08:44:04;;;;;;;8.60;4.32;;;9.70;46.00;;;;;;5058263;28;20055;-63
2023/03/20 08:46:29;;;;;;;9.07;3.50;;;9.80;1.00;;;;;;5076415;28;20036;-63
2023/03/20 08:48:55;;;;;;;8.00;3.33;;;9.90;1.00;;;;;;5076382;28;20553;-62
2023/03/20 08:51:21;;;;;;;11.35;4.00;;;9.90;99.90;;;;;;5076279;28;20072;-62
2023/03/20 08:53:46;;;;;;;9.18;3.63;;;9.90;99.90;;;;;;5076329;28;20040;-62
2023/03/20 08:56:12;;;;;;;8.18;3.97;;;10.00;99.90;;;;;;5076223;28;20406;-63
2023/03/20 08:58:38;;;;;;;7.43;3.88;;;10.00;99.90;;;;;;5076277;28;20421;-63
2023/03/20 09:01:06;;;;;;;7.47;3.40;;;10.10;99.90;;;;;;5075884;28;20076;-62
2023/03/20 09:03:32;;;;;;;9.15;3.72;;;10.00;99.90;;;;;;5075942;28;20052;-62
2023/03/20 09:05:57;;;;;;;9.02;4.32;;;10.00;1.00;;;;;;5076097;28;20411;-63
2023/03/20 09:08:23;;;;;;;9.07;4.05;;;10.10;1.00;;;;;;5076057;28;20048;-62
2023/03/20 09:10:49;;;;;;;8.57;4.10;;;10.20;3.60;;;;;;5075619;28;20071;-64
2023/03/20 09:13:15;;;;;;;11.77;3.90;;;10.30;99.90;;;;;;5075973;28;20076;-62
2023/03/20 09:15:41;;;;;;;10.38;4.15;;;10.30;99.90;;;;;;5075615;28;20041;-63
2023/03/20 09:18:07;;;;;;;7.63;3.55;;;10.50;1.00;;;;;;5075863;28;20119;-63
2023/03/20 09:20:33;;;;;;;8.93;4.35;;;10.60;99.90;;;;;;5075783;28;20072;-63
2023/03/20 09:22:59;;;;;;;8.02;3.65;;;10.60;71.50;;;;;;5057636;28;20044;-63
2023/03/20 09:25:25;;;;;;;6.20;3.60;;;10.60;99.90;;;;;;5075224;28;20041;-63
2023/03/20 09:27:54;;;;;;;8.38;3.42;;;11.50;99.90;;;;;;5075397;28;20054;-62
2023/03/20 09:30:22;;;;;;;13.02;3.78;;;10.50;99.90;;;;;;5075357;28;20125;-62
2023/03/20 09:32:48;;;;;;;8.40;4.07;;;10.60;99.90;;;;;;5075515;28;20067;-63
2023/03/20 09:35:14;;;;;;;9.52;3.50;;;10.60;1.00;;;;;;5057699;28;20131;-62
2023/03/20 09:37:39;;;;;;;5.55;3.38;;;10.70;99.90;;;;;;5075220;28;20046;-62
2023/03/20 09:40:06;;;;;;;7.05;3.47;;;10.90;43.20;;;;;;5057512;28;20048;-62
2023/03/20 09:43:03;;;;;;;7.88;3.15;;;11.00;1.00;;;;;;5075374;28;20036;-63
2023/03/20 09:45:54;;;;;;;9.40;3.25;;;11.10;1.00;;;;;;5004912;28;20110;-63
2023/03/20 09:48:31;;;;;;;4.20;2.92;;;11.30;99.90;;;;;;5075356;28;20043;-63
2023/03/20 09:51:24;;;;;;;5.10;3.00;;;11.30;1.00;;;;;;5075161;28;20045;-63
2023/03/20 09:54:04;;;;;;;6.07;3.35;;;11.30;99.90;;;;;;5074956;28;20127;-63
2023/03/20 09:56:30;;;;;;;4.63;2.67;;;11.40;99.90;;;;;;5075109;28;20433;-63
2023/03/20 09:59:02;;;;;;;4.90;2.85;;;11.40;1.00;;;;;;5075081;28;20120;-63
2023/03/20 10:01:43;;;;;;;5.97;3.10;;;11.30;99.90;;;;;;5074712;28;20056;-63
2023/03/20 10:04:10;;;;;;;6.03;3.25;;;11.40;99.90;;;;;;5074569;28;20057;-63
2023/03/20 10:06:36;;;;;;;8.32;3.25;;;11.30;99.90;;;;;;5074984;28;20377;-63
2023/03/20 10:09:13;;;;;;;7.25;3.00;;;11.40;99.90;;;;;;5074585;28;20044;-63
2023/03/20 10:11:48;;;;;;;5.30;3.13;;;11.10;99.90;;;;;;5074769;28;20028;-63
2023/03/20 10:14:36;;;;;;;7.45;3.83;;;11.20;99.90;;;;;;5074812;28;20044;-63
2023/03/20 10:17:10;;;;;;;4.97;2.88;;;11.40;99.90;;;;;;5074744;28;20044;-63
2023/03/20 10:19:42;;;;;;;6.28;3.42;;;11.50;99.90;;;;;;5074740;28;20404;-63
2023/03/20 10:22:14;;;;;;;6.80;3.42;;;11.50;99.90;;;;;;5074619;28;20036;-63
2023/03/20 10:25:07;;;;;;;6.05;3.63;;;11.60;99.90;;;;;;5074584;28;20123;-63
2023/03/20 10:27:45;;;;;;;6.95;3.42;;;11.60;47.30;;;;;;5074503;28;20091;-63
2023/03/20 10:30:54;;;;;;;10.63;3.67;;;11.50;53.40;;;;;;5074462;28;20029;-63
2023/03/20 10:33:57;;;;;;;7.38;3.95;;;11.50;1.00;;;;;;5036283;28;20094;-63
2023/03/20 10:36:56;;;;;;;8.23;3.70;;;11.50;99.90;;;;;;5073680;28;20036;-63
2023/03/20 10:39:34;;;;;;;6.70;3.80;;;11.60;70.50;;;;;;5074449;28;20459;-63
2023/03/20 10:42:03;;;;;;;5.03;3.42;;;11.60;99.90;;;;;;5074303;28;20488;-63
2023/03/20 10:44:39;;;;;;;6.10;3.47;;;11.50;99.90;;;;;;5074264;28;20552;-63
2023/03/20 10:47:08;;;;;;;9.40;3.90;;;11.40;99.90;;;;;;5073999;28;20036;-63
2023/03/20 10:49:40;;;;;;;9.70;5.28;;;11.30;99.90;;;;;;5074078;28;20392;-63
2023/03/20 10:52:13;;;;;;;8.15;4.20;;;11.20;99.90;;;;;;5073732;28;20116;-63
2023/03/20 10:54:47;;;;;;;9.02;3.72;;;11.10;99.90;;;;;;5074068;28;20041;-63
2023/03/20 10:57:21;;;;;;;10.57;4.55;;;11.00;1.00;;;;;;5074027;28;20403;-63
2023/03/20 10:59:49;;;;;;;5.05;3.75;;;11.00;1.00;;;;;;5073623;28;20040;-63
2023/03/20 11:02:17;;;;;;;6.85;3.88;;;10.90;99.90;;;;;;5073924;28;20032;-63
2023/03/20 11:04:43;;;;;;;7.25;3.83;;;12.00;99.90;;;;;;5073353;28;20403;-62
2023/03/20 11:07:24;;;;;;;7.55;4.80;;;10.70;99.90;;;;;;5073781;28;20397;-62
2023/03/20 11:10:05;;;;;;;7.70;4.47;;;10.70;99.90;;;;;;5073622;28;20056;-62
2023/03/20 11:12:36;;;;;;;10.23;4.85;;;10.70;21.40;;;;;;5073706;28;20052;-62
2023/03/20 11:15:22;;;;;;;13.73;4.22;;;10.80;99.90;;;;;;5073339;28;20119;-62
2023/03/20 11:18:06;;;;;;;6.90;4.22;;;10.80;99.90;;;;;;5073559;28;20130;-62
2023/03/20 11:20:35;;;;;;;10.60;5.00;;;10.80;99.90;;;;;;5073467;28;20115;-63
2023/03/20 11:23:04;;;;;;;12.85;4.40;;;10.80;99.90;;;;;;5073222;28;20047;-63
2023/03/20 11:25:34;;;;;;;6.53;3.75;;;10.90;99.90;;;;;;5073389;28;20089;-62
2023/03/20 11:28:34;;;;;;;10.50;4.72;;;10.80;99.90;;;;;;5073376;28;20040;-64
2023/03/20 11:31:40;;;;;;;8.57;3.97;;;10.80;99.90;;;;;;5055181;28;20043;-65
2023/03/20 11:34:14;;;;;;;10.68;4.30;;;10.70;99.90;;;;;;4991612;28;20524;-63
2023/03/20 11:36:46;;;;;;;8.23;3.95;;;10.60;99.90;;;;;;5060954;28;20051;-63
2023/03/20 11:39:14;;;;;;;9.60;3.72;;;10.60;99.90;;;;;;5072881;28;20101;-63
2023/03/20 11:41:44;;;;;;;4.80;2.80;;;10.60;99.90;;;;;;5073039;28;20360;-63
2023/03/20 11:44:31;;;;;;;5.28;2.63;;;10.60;99.90;;;;;;5073136;28;20041;-63
2023/03/20 11:47:11;;;;;;;6.43;3.03;;;10.60;99.90;;;;;;5072951;28;20083;-62
2023/03/20 11:49:54;;;;;;;8.05;3.88;;;10.60;99.90;;;;;;5073016;28;20039;-63
2023/03/20 11:52:24;;;;;;;12.45;3.90;;;10.50;99.90;;;;;;5055025;28;20040;-62
2023/03/20 11:54:53;;;;;;;6.40;3.53;;;10.50;99.90;;;;;;5072742;28;20492;-62
2023/03/20 11:57:34;;;;;;;5.47;3.47;;;10.50;99.90;;;;;;5073003;28;20090;-63
2023/03/20 12:00:06;;;;;;;9.65;3.17;;;10.50;99.90;;;;;;5055051;28;20072;-63
2023/03/20 12:02:34;;;;;;;8.35;3.10;;;10.40;1.00;;;;;;5072794;28;20093;-63
2023/03/20 12:05:00;;;;;;;8.85;3.28;;;10.40;1.00;;;;;;5073008;28;20040;-63
2023/03/20 12:07:31;;;;;;;7.57;3.58;;;10.40;36.40;;;;;;5072901;28;20438;-63
2023/03/20 12:10:01;;;;;;;;;;;10.50;99.90;;;;;;5073337;28;20029;-63
2023/03/20 12:12:41;;;;;;;5.78;2.55;;;10.50;99.90;;;;;;5072521;28;19920;-63
2023/03/20 12:15:15;;;;;;;4.57;3.10;;;10.40;1.00;;;;;;5072912;28;20048;-63
2023/03/20 12:18:06;;;;;;;8.95;2.50;;;10.40;1.00;;;;;;5054584;28;20036;-63
2023/03/20 12:20:31;;;;;;;5.43;3.13;;;10.40;1.00;;;;;;5072464;28;20050;-63
2023/03/20 12:22:57;;;;;;;6.35;2.70;;;10.40;99.90;;;;;;5072603;28;20066;-63
2023/03/20 12:25:46;;;;;;;2.42;2.13;;;10.40;98.90;;;;;;5072880;28;20106;-63
2023/03/20 12:28:31;;;;;;;4.07;2.47;;;10.30;87.70;;;;;;5061735;28;20402;-63
2023/03/20 12:31:17;;;;;;;3.90;2.85;;;10.30;99.90;;;;;;5072701;28;20449;-63
2023/03/20 12:34:10;;;;;;;8.43;3.08;;;10.30;99.90;;;;;;5072698;28;20036;-63
2023/03/20 12:36:40;;;;;;;4.22;1.90;;;10.20;99.90;;;;;;5072696;28;20476;-63
2023/03/20 12:39:13;;;;;;;2.65;1.55;;;10.20;99.90;;;;;;5072663;28;20040;-63
2023/03/20 12:41:56;;;;;;;7.90;2.13;;;10.20;99.90;;;;;;5072643;28;20491;-63
2023/03/20 12:44:28;;;;;;;2.47;1.40;;;10.60;99.90;;;;;;5072640;28;20049;-63
2023/03/20 12:47:28;;;;;;;2.78;1.60;;;10.30;99.90;;;;;;5072616;28;20088;-63
2023/03/20 12:50:22;;;;;;;2.63;1.48;;;10.30;99.90;;;;;;5072506;28;20112;-63
2023/03/20 12:53:22;;;;;;;5.22;1.60;;;10.40;99.90;;;;;;5072565;28;20076;-64
2023/03/20 12:56:03;;;;;;;3.83;2.43;;;10.40;99.90;;;;;;5072284;28;20047;-63
2023/03/20 12:58:46;;;;;;;5.72;2.10;;;10.40;99.90;;;;;;5072136;28;20046;-63
2023/03/20 13:01:18;;;;;;;3.67;1.70;;;10.40;13.40;;;;;;5075038;28;20059;-63
2023/03/20 13:04:21;;;;;;;3.17;1.73;;;10.30;99.90;;;;;;5075712;28;20055;-63
2023/03/20 13:07:00;;;;;;;2.42;1.67;;;10.20;99.90;;;;;;5076083;28;20084;-63
2023/03/20 13:09:50;;;;;;;3.95;1.65;;;10.10;99.90;;;;;;5057896;28;20040;-63
2023/03/20 13:12:39;;;;;;;3.15;1.83;;;10.00;99.90;;;;;;5075992;28;20041;-63
2023/03/20 13:15:19;;;;;;;3.63;2.08;;;10.00;99.90;;;;;;5075945;28;20120;-63